Time;durP1;ratioP1;P1;durP2;ratioP2;P2;SDS_P1;SDS_P2;PMS_P1;PMS_P2;Temp;Humidity;BMP_temperature;BMP_pressure;BME280_temperature;BME280_humidity;BME280_pressure;Samples;Min_cycle;Max_cycle;Signal;HPM_P1;HPM_P2
2023/04/04 00:00:08;;;;;;;;;;;5.40;62.70;;;;;;5075012;28;20289;-36
2023/04/04 00:02:34;;;;;;;;;;;5.30;62.70;;;;;;5075073;28;19916;-36
2023/04/04 00:05:00;;;;;;;;;;;5.30;62.70;;;;;;5075163;28;19908;-37
2023/04/04 00:07:26;;;;;;;;;;;5.30;62.80;;;;;;5074961;28;20379;-35
2023/04/04 00:09:51;;;;;;;;;;;5.30;62.80;;;;;;5074898;28;19912;-36
2023/04/04 00:12:17;;;;;;;;;;;5.20;62.80;;;;;;5074924;28;19908;-35
2023/04/04 00:14:42;;;;;;;;;;;5.20;62.80;;;;;;5074917;28;20015;-35
2023/04/04 00:17:08;;;;;;;;;;;5.20;62.90;;;;;;5074634;28;19909;-35
2023/04/04 00:19:33;;;;;;;;;;;5.20;63.00;;;;;;5074741;28;19912;-33
2023/04/04 00:21:59;;;;;;;;;;;5.20;63.00;;;;;;5075040;28;20296;-36
2023/04/04 00:24:24;;;;;;;;;;;5.20;62.90;;;;;;5074404;28;19968;-34
2023/04/04 00:26:50;;;;;;;;;;;5.20;63.00;;;;;;5074540;28;19913;-36
2023/04/04 00:29:16;;;;;;;;;;;5.10;63.00;;;;;;5074458;28;19912;-36
2023/04/04 00:31:42;;;;;;;;;;;5.10;63.10;;;;;;5074652;28;19909;-36
2023/04/04 00:34:07;;;;;;;;;;;5.10;63.10;;;;;;5074309;28;20283;-36
2023/04/04 00:36:33;;;;;;;;;;;5.10;63.10;;;;;;5074689;28;19908;-34
2023/04/04 00:38:58;;;;;;;;;;;5.10;63.20;;;;;;5074533;28;19963;-36
2023/04/04 00:41:24;;;;;;;;;;;5.00;63.20;;;;;;5074281;28;20390;-40
2023/04/04 00:43:49;;;;;;;;;;;5.00;63.30;;;;;;5074445;28;19956;-36
2023/04/04 00:46:17;;;;;;;;;;;5.00;63.30;;;;;;5074345;28;19909;-36
2023/04/04 00:48:43;;;;;;;;;;;5.00;64.00;;;;;;5073997;28;20368;-36
2023/04/04 00:51:08;;;;;;;;;;;5.00;63.40;;;;;;5073938;28;19919;-35
2023/04/04 00:53:34;;;;;;;;;;;5.00;63.40;;;;;;5074086;28;19915;-35
2023/04/04 00:56:00;;;;;;;;;;;5.00;63.50;;;;;;5074237;28;19908;-36
2023/04/04 00:58:26;;;;;;;;;;;4.90;63.50;;;;;;5074335;28;19908;-36
2023/04/04 01:00:51;;;;;;;;;;;5.00;63.60;;;;;;5074055;28;20043;-36
2023/04/04 01:03:18;;;;;;;;;;;4.90;63.60;;;;;;5073780;28;19908;-34
2023/04/04 01:05:43;;;;;;;;;;;4.90;63.70;;;;;;5073688;28;19931;-36
2023/04/04 01:08:09;;;;;;;;;;;4.90;63.80;;;;;;5072192;28;19912;-35
2023/04/04 01:10:35;;;;;;;;;;;4.80;63.70;;;;;;5074082;28;19908;-35
2023/04/04 01:13:01;;;;;;;;;;;4.80;63.80;;;;;;5073938;28;19909;-38
2023/04/04 01:15:26;;;;;;;;;;;4.80;63.90;;;;;;5073629;28;20343;-36
2023/04/04 01:17:54;;;;;;;;;;;4.80;63.90;;;;;;5073433;28;19962;-38
2023/04/04 01:20:23;;;;;;;;;;;4.80;64.00;;;;;;5073905;28;19912;-36
2023/04/04 01:22:50;;;;;;;;;;;4.80;64.00;;;;;;5073297;28;19955;-36
2023/04/04 01:25:17;;;;;;;;;;;4.80;64.10;;;;;;5073674;28;19909;-36
2023/04/04 01:27:42;;;;;;;;;;;4.70;64.10;;;;;;5073306;28;19916;-36
2023/04/04 01:30:08;;;;;;;;;;;4.70;64.10;;;;;;5073169;28;19929;-36
2023/04/04 01:32:43;;;;;;;;;;;4.70;64.20;;;;;;5073486;28;19940;-35
2023/04/04 01:35:19;;;;;;;;;;;4.70;64.20;;;;;;5073199;28;19960;-34
2023/04/04 01:37:48;;;;;;;;;;;4.70;64.30;;;;;;5073340;28;19909;-34
2023/04/04 01:40:19;;;;;;;;;;;4.60;64.30;;;;;;5073039;28;20324;-35
2023/04/04 01:42:45;;;;;;;;;;;4.60;64.30;;;;;;5073029;28;19908;-34
2023/04/04 01:45:11;;;;;;;;;;;4.60;64.30;;;;;;5071702;28;20019;-36
2023/04/04 01:47:40;;;;;;;;;;;4.60;64.40;;;;;;5073180;28;19909;-35
2023/04/04 01:50:06;;;;;;;;;;;4.50;64.40;;;;;;5073031;28;19912;-34
2023/04/04 01:52:32;;;;;;;;;;;4.50;64.40;;;;;;5073457;28;19991;-36
2023/04/04 01:54:57;;;;;;;;;;;4.50;64.50;;;;;;5071536;28;20429;-34
2023/04/04 01:57:23;;;;;;;;;;;4.40;64.50;;;;;;5071496;28;19917;-35
2023/04/04 01:59:48;;;;;;;;;;;4.40;64.60;;;;;;5072775;28;19912;-36
2023/04/04 02:02:14;;;;;;;;;;;4.40;64.60;;;;;;5072705;28;19909;-35
2023/04/04 02:04:40;;;;;;;;;;;4.30;64.50;;;;;;5073072;28;19908;-36
2023/04/04 02:07:05;;;;;;;;;;;4.30;64.60;;;;;;5073080;28;19940;-34
2023/04/04 02:09:31;;;;;;;;;;;4.30;64.70;;;;;;5072848;28;20041;-36
2023/04/04 02:11:56;;;;;;;;;;;4.30;64.70;;;;;;5072397;28;19995;-33
2023/04/04 02:14:22;;;;;;;;;;;4.20;64.70;;;;;;5071971;28;20004;-36
2023/04/04 02:16:47;;;;;;;;;;;4.20;64.80;;;;;;5072453;28;19908;-35
2023/04/04 02:19:13;;;;;;;;;;;4.20;64.80;;;;;;5072369;28;19909;-37
2023/04/04 02:21:38;;;;;;;;;;;4.20;64.80;;;;;;5072344;28;19978;-36
2023/04/04 02:24:04;;;;;;;;;;;4.10;64.70;;;;;;5072366;28;19927;-35
2023/04/04 02:26:29;;;;;;;;;;;4.10;64.80;;;;;;5072513;28;19995;-35
2023/04/04 02:28:55;;;;;;;;;;;4.10;64.90;;;;;;5072403;28;19913;-35
2023/04/04 02:31:21;;;;;;;;;;;4.00;64.90;;;;;;5070804;28;19961;-36
2023/04/04 02:33:47;;;;;;;;;;;4.00;64.90;;;;;;5072559;28;19939;-35
2023/04/04 02:36:12;;;;;;;;;;;4.00;64.90;;;;;;5072192;28;19947;-36
2023/04/04 02:38:38;;;;;;;;;;;4.00;64.90;;;;;;5072523;28;19908;-36
2023/04/04 02:41:03;;;;;;;;;;;3.90;64.90;;;;;;5072431;28;20371;-37
2023/04/04 02:43:29;;;;;;;;;;;3.90;64.90;;;;;;5070775;28;19908;-36
2023/04/04 02:45:54;;;;;;;;;;;3.90;64.90;;;;;;5072157;28;19912;-40
2023/04/04 02:48:20;;;;;;;;;;;3.80;65.00;;;;;;5072318;28;19968;-36
2023/04/04 02:50:46;;;;;;;;;;;3.80;65.10;;;;;;5072168;28;19908;-38
2023/04/04 02:53:12;;;;;;;;;;;3.80;65.10;;;;;;5072169;28;19909;-43
2023/04/04 02:55:37;;;;;;;;;;;3.80;65.10;;;;;;5071936;28;19995;-35
2023/04/04 02:58:03;;;;;;;;;;;3.80;65.20;;;;;;5071947;28;19931;-36
2023/04/04 03:00:28;;;;;;;;;;;3.80;65.20;;;;;;5072124;28;19917;-36
2023/04/04 03:02:54;;;;;;;;;;;3.80;65.30;;;;;;5071841;28;19919;-36
2023/04/04 03:05:20;;;;;;;;;;;3.70;65.20;;;;;;5072006;28;19947;-36
2023/04/04 03:07:46;;;;;;;;;;;3.70;65.30;;;;;;5072195;28;19912;-35
2023/04/04 03:10:11;;;;;;;;;;;3.70;65.30;;;;;;5071985;28;19912;-36
2023/04/04 03:12:37;;;;;;;;;;;3.70;65.40;;;;;;5071871;28;20020;-36
2023/04/04 03:15:03;;;;;;;;;;;3.70;65.50;;;;;;5071803;28;19914;-36
2023/04/04 03:17:29;;;;;;;;;;;3.70;65.50;;;;;;5071932;28;19908;-35
2023/04/04 03:19:54;;;;;;;;;;;3.60;65.50;;;;;;5071855;28;19996;-36
2023/04/04 03:22:20;;;;;;;;;;;3.60;65.60;;;;;;5071992;28;19939;-36
2023/04/04 03:24:45;;;;;;;;;;;3.60;65.60;;;;;;5071460;28;19920;-35
2023/04/04 03:27:10;;;;;;;;;;;3.60;65.60;;;;;;5073824;28;20299;-49
2023/04/04 03:29:36;;;;;;;;;;;3.60;65.70;;;;;;5075467;28;20279;-35
2023/04/04 03:32:02;;;;;;;;;;;3.60;65.70;;;;;;5075903;28;19916;-36
2023/04/04 03:34:27;;;;;;;;;;;3.50;65.70;;;;;;5075966;28;20352;-35
2023/04/04 03:36:53;;;;;;;;;;;3.50;65.70;;;;;;5075845;28;20340;-36
2023/04/04 03:39:19;;;;;;;;;;;3.50;65.80;;;;;;5075755;28;19912;-34
2023/04/04 03:41:44;;;;;;;;;;;3.50;65.80;;;;;;5075718;28;19950;-36
2023/04/04 03:44:09;;;;;;;;;;;3.50;65.80;;;;;;5075353;28;19912;-35
2023/04/04 03:46:35;;;;;;;;;;;3.50;65.90;;;;;;5075276;28;19909;-35
2023/04/04 03:49:00;;;;;;;;;;;3.50;65.90;;;;;;5075147;28;20018;-36
2023/04/04 03:51:26;;;;;;;;;;;3.50;65.90;;;;;;5075233;28;19915;-38
2023/04/04 03:53:52;;;;;;;;;;;3.50;66.00;;;;;;5075347;28;19913;-36
2023/04/04 03:56:18;;;;;;;;;;;3.50;66.00;;;;;;5075259;28;19909;-35
2023/04/04 03:58:44;;;;;;;;;;;3.50;66.00;;;;;;5075002;28;20007;-37
2023/04/04 04:01:10;;;;;;;;;;;3.50;66.00;;;;;;5075226;28;19912;-35
2023/04/04 04:03:36;;;;;;;;;;;3.50;66.10;;;;;;5074878;28;19995;-42
2023/04/04 04:06:01;;;;;;;;;;;3.40;66.10;;;;;;5075082;28;19958;-38
2023/04/04 04:08:30;;;;;;;;;;;3.40;66.20;;;;;;5074628;28;20318;-36
2023/04/04 04:10:56;;;;;;;;;;;3.30;66.20;;;;;;5074878;28;19909;-35
2023/04/04 04:13:21;;;;;;;;;;;3.30;66.30;;;;;;5074941;28;19915;-36
2023/04/04 04:15:48;;;;;;;;;;;3.30;66.40;;;;;;5074551;28;19996;-36
2023/04/04 04:18:13;;;;;;;;;;;3.30;66.50;;;;;;5074844;28;19997;-41
2023/04/04 04:20:39;;;;;;;;;;;3.30;66.60;;;;;;5074565;28;19982;-35
2023/04/04 04:23:04;;;;;;;;;;;3.30;66.60;;;;;;5074305;28;19921;-37
2023/04/04 04:25:30;;;;;;;;;;;3.20;66.50;;;;;;5073423;28;20352;-36
2023/04/04 04:27:56;;;;;;;;;;;3.30;66.60;;;;;;5073674;28;19915;-45
2023/04/04 04:30:22;;;;;;;;;;;3.30;66.60;;;;;;5073083;28;19956;-37
2023/04/04 04:32:48;;;;;;;;;;;3.20;66.60;;;;;;5073342;28;20352;-36
2023/04/04 04:35:14;;;;;;;;;;;3.20;66.60;;;;;;5073227;28;20048;-38
2023/04/04 04:37:39;;;;;;;;;;;3.20;66.50;;;;;;5072871;28;19916;-35
2023/04/04 04:40:05;;;;;;;;;;;3.20;66.50;;;;;;5073114;28;19909;-34
2023/04/04 04:42:31;;;;;;;;;;;3.20;66.60;;;;;;5074630;28;19909;-35
2023/04/04 04:44:56;;;;;;;;;;;3.20;66.70;;;;;;5073124;28;20031;-35
2023/04/04 04:47:22;;;;;;;;;;;3.20;66.70;;;;;;5072986;28;19958;-37
2023/04/04 04:49:48;;;;;;;;;;;3.20;66.70;;;;;;5072995;28;19948;-36
2023/04/04 04:52:14;;;;;;;;;;;3.10;66.70;;;;;;5073202;28;20360;-37
2023/04/04 04:54:39;;;;;;;;;;;3.10;66.70;;;;;;5073097;28;20014;-36
2023/04/04 04:57:06;;;;;;;;;;;3.10;66.80;;;;;;5073023;28;19954;-35
2023/04/04 04:59:31;;;;;;;;;;;3.10;66.80;;;;;;5073064;28;20380;-37
2023/04/04 05:01:57;;;;;;;;;;;3.10;66.80;;;;;;5072988;28;19930;-36
2023/04/04 05:04:22;;;;;;;;;;;3.10;66.90;;;;;;5072932;28;19909;-39
2023/04/04 05:06:48;;;;;;;;;;;3.10;66.90;;;;;;5071537;28;19956;-37
2023/04/04 05:09:13;;;;;;;;;;;3.10;67.00;;;;;;5072727;28;19913;-37
2023/04/04 05:11:39;;;;;;;;;;;3.10;67.00;;;;;;5072934;28;19926;-37
2023/04/04 05:14:04;;;;;;;;;;;3.10;67.10;;;;;;5072929;28;19936;-37
2023/04/04 05:16:30;;;;;;;;;;;3.10;67.10;;;;;;5072808;28;19994;-37
2023/04/04 05:18:56;;;;;;;;;;;3.10;67.10;;;;;;5072772;28;19909;-36
2023/04/04 05:21:22;;;;;;;;;;;3.10;67.20;;;;;;5072613;28;19912;-37
2023/04/04 05:23:47;;;;;;;;;;;3.20;67.30;;;;;;5010855;28;1757347;-36
2023/04/04 05:26:13;;;;;;;;;;;3.20;67.30;;;;;;5073541;28;20328;-38
2023/04/04 05:28:39;;;;;;;;;;;3.20;67.30;;;;;;5073507;28;19920;-36
2023/04/04 05:31:05;;;;;;;;;;;3.20;67.40;;;;;;5073525;28;19913;-37
2023/04/04 05:33:31;;;;;;;;;;;3.10;67.20;;;;;;5073387;28;19919;-38
2023/04/04 05:35:58;;;;;;;;;;;3.10;67.30;;;;;;5073453;28;19963;-36
2023/04/04 05:38:23;;;;;;;;;;;3.20;67.40;;;;;;5073299;28;19912;-37
2023/04/04 05:40:49;;;;;;;;;;;3.20;67.40;;;;;;5073605;28;19923;-37
2023/04/04 05:43:14;;;;;;;;;;;3.20;67.30;;;;;;5072168;28;19948;-45
2023/04/04 05:45:40;;;;;;;;;;;3.20;67.30;;;;;;5073259;28;20014;-36
2023/04/04 05:48:05;;;;;;;;;;;3.20;67.30;;;;;;5073532;28;20355;-36
2023/04/04 05:50:31;;;;;;;;;;;3.20;67.30;;;;;;5072111;28;20014;-35
2023/04/04 05:52:56;;;;;;;;;;;3.30;67.30;;;;;;5073152;28;19919;-36
2023/04/04 05:55:22;;;;;;;;;;;3.30;67.30;;;;;;5073050;28;19912;-37
2023/04/04 05:57:48;;;;;;;;;;;3.30;67.30;;;;;;5073100;28;19912;-37
2023/04/04 06:00:14;;;;;;;;;;;3.40;67.30;;;;;;5072948;28;19992;-37
2023/04/04 06:02:40;;;;;;;;;;;3.40;67.30;;;;;;5072932;28;20334;-38
2023/04/04 06:05:06;;;;;;;;;;;3.40;67.30;;;;;;5072584;28;20046;-37
2023/04/04 06:07:32;;;;;;;;;;;3.40;67.30;;;;;;5072770;28;19912;-37
2023/04/04 06:09:57;;;;;;;;;;;3.50;67.30;;;;;;5072587;28;19924;-44
2023/04/04 06:12:23;;;;;;;;;;;3.50;67.30;;;;;;5072673;28;20003;-36
2023/04/04 06:14:48;;;;;;;;;;;3.60;67.30;;;;;;5072523;28;19927;-36
2023/04/04 06:17:14;;;;;;;;;;;3.60;67.20;;;;;;5072600;28;19923;-37
2023/04/04 06:19:39;;;;;;;;;;;3.60;67.80;;;;;;5072601;28;20364;-37
2023/04/04 06:22:05;;;;;;;;;;;3.70;67.00;;;;;;5072544;28;19912;-37
2023/04/04 06:24:30;;;;;;;;;;;3.80;66.90;;;;;;5072403;28;19927;-37
2023/04/04 06:26:56;;;;;;;;;;;3.80;66.80;;;;;;5072644;28;19920;-37
2023/04/04 06:29:23;;;;;;;;;;;3.90;66.80;;;;;;5072459;28;20037;-38
2023/04/04 06:31:48;;;;;;;;;;;4.00;66.80;;;;;;5072438;28;20399;-36
2023/04/04 06:34:14;;;;;;;;;;;4.00;66.60;;;;;;5072405;28;19912;-37
2023/04/04 06:36:39;;;;;;;;;;;4.10;66.60;;;;;;5072326;28;19966;-37
2023/04/04 06:39:05;;;;;;;;;;;4.10;66.60;;;;;;5072517;28;19957;-35
2023/04/04 06:41:30;;;;;;;;;;;4.20;66.50;;;;;;5072193;28;19913;-37
2023/04/04 06:43:56;;;;;;;;;;;4.20;66.40;;;;;;5072283;28;19943;-37
2023/04/04 06:46:22;;;;;;;;;;;4.30;66.30;;;;;;5072156;28;19920;-37
2023/04/04 06:48:47;;;;;;;;;;;4.40;66.20;;;;;;5072008;28;19916;-36
2023/04/04 06:51:13;;;;;;;;;;;4.50;66.10;;;;;;5072567;28;19913;-36
2023/04/04 06:53:38;;;;;;;;;;;4.60;66.10;;;;;;5071891;28;19955;-35
2023/04/04 06:56:04;;;;;;;;;;;4.70;66.00;;;;;;5070824;28;19919;-38
2023/04/04 06:58:30;;;;;;;;;;;4.80;65.90;;;;;;5071154;28;19935;-36
2023/04/04 07:00:58;;;;;;;;;;;4.80;65.70;;;;;;5071980;28;19920;-37
2023/04/04 07:03:24;;;;;;;;;;;5.00;65.70;;;;;;5072090;28;19912;-36
2023/04/04 07:05:50;;;;;;;;;;;5.00;65.50;;;;;;5071981;28;19920;-36
2023/04/04 07:08:15;;;;;;;;;;;5.10;65.40;;;;;;5071860;28;19999;-36
2023/04/04 07:10:40;;;;;;;;;;;5.20;65.40;;;;;;5071675;28;19912;-35
2023/04/04 07:13:06;;;;;;;;;;;5.20;65.40;;;;;;5071871;28;19951;-36
2023/04/04 07:15:32;;;;;;;;;;;5.20;65.20;;;;;;5072045;28;19999;-36
2023/04/04 07:17:57;;;;;;;;;;;5.30;65.20;;;;;;5071751;28;19912;-34
2023/04/04 07:20:23;;;;;;;;;;;5.30;65.20;;;;;;5071773;28;19920;-36
2023/04/04 07:22:48;;;;;;;;;;;5.30;65.10;;;;;;5071654;28;19917;-36
2023/04/04 07:25:14;;;;;;;;;;;5.40;65.20;;;;;;5071814;28;19919;-36
2023/04/04 07:27:42;;;;;;;;;;;5.40;65.80;;;;;;5071609;28;20376;-36
2023/04/04 07:30:08;;;;;;;;;;;5.40;65.00;;;;;;5071405;28;19960;-35
2023/04/04 07:32:34;;;;;;;;;;;5.50;64.90;;;;;;5070285;28;19943;-35
2023/04/04 07:34:59;;;;;;;;;;;5.50;65.00;;;;;;5071931;28;20400;-36
2023/04/04 07:37:28;;;;;;;;;;;5.50;64.90;;;;;;5071629;28;19967;-37
2023/04/04 07:39:53;;;;;;;;;;;5.50;64.70;;;;;;5071558;28;19912;-36
2023/04/04 07:42:22;;;;;;;;;;;5.60;64.80;;;;;;5071465;28;20007;-33
2023/04/04 07:44:51;;;;;;;;;;;5.60;64.70;;;;;;5070252;28;19916;-36
2023/04/04 07:47:16;;;;;;;;;;;5.60;64.70;;;;;;5071539;28;19962;-36
2023/04/04 07:49:42;;;;;;;;;;;5.70;64.70;;;;;;5071424;28;20368;-36
2023/04/04 07:52:08;;;;;;;;;;;5.70;64.60;;;;;;5071614;28;19912;-36
2023/04/04 07:54:33;;;;;;;;;;;5.80;64.60;;;;;;5071269;28;20360;-37
2023/04/04 07:56:59;;;;;;;;;;;5.80;64.50;;;;;;5071442;28;20051;-33
2023/04/04 07:59:25;;;;;;;;;;;5.90;64.50;;;;;;5071584;28;20569;-36
2023/04/04 08:01:50;;;;;;;;;;;6.00;64.60;;;;;;5071237;28;19919;-35
2023/04/04 08:04:16;;;;;;;;;;;6.00;64.60;;;;;;5071578;28;20249;-36
2023/04/04 08:06:41;;;;;;;;;;;6.10;64.40;;;;;;5071235;28;19920;-35
2023/04/04 08:09:07;;;;;;;;;;;6.10;64.30;;;;;;5071489;28;19924;-36
2023/04/04 08:11:32;;;;;;;;;;;6.10;64.20;;;;;;5071173;28;19966;-34
2023/04/04 08:13:58;;;;;;;;;;;6.20;64.00;;;;;;5073995;28;20280;-38
2023/04/04 08:16:23;;;;;;;;;;;6.20;64.00;;;;;;5074817;28;20419;-38
2023/04/04 08:18:49;;;;;;;;;;;6.20;63.90;;;;;;5074924;28;19917;-36
2023/04/04 08:21:14;;;;;;;;;;;6.30;64.00;;;;;;5074727;28;19930;-37
2023/04/04 08:23:40;;;;;;;;;;;6.30;63.90;;;;;;5074601;28;19928;-35
2023/04/04 08:26:05;;;;;;;;;;;6.30;63.90;;;;;;5074821;28;19919;-37
2023/04/04 08:28:31;;;;;;;;;;;6.40;64.00;;;;;;5073233;28;20015;-36
2023/04/04 08:30:56;;;;;;;;;;;6.40;63.70;;;;;;5074755;28;19913;-37
2023/04/04 08:33:23;;;;;;;;;;;6.50;63.70;;;;;;5074582;28;19913;-36
2023/04/04 08:35:49;;;;;;;;;;;6.60;63.70;;;;;;5074486;28;19927;-34
2023/04/04 08:38:14;;;;;;;;;;;6.60;63.50;;;;;;5074646;28;19912;-36
2023/04/04 08:40:40;;;;;;;;;;;6.70;63.30;;;;;;5074516;28;20009;-36
2023/04/04 08:43:06;;;;;;;;;;;6.80;63.20;;;;;;5074769;28;20456;-36
2023/04/04 08:45:32;;;;;;;;;;;6.80;63.20;;;;;;5073188;28;19912;-36
2023/04/04 08:47:59;;;;;;;;;;;6.80;63.40;;;;;;5074616;28;19958;-36
2023/04/04 08:50:26;;;;;;;;;;;6.90;63.50;;;;;;5074429;28;19916;-38
2023/04/04 08:52:51;;;;;;;;;;;6.90;63.20;;;;;;5074452;28;20372;-35
2023/04/04 08:55:18;;;;;;;;;;;6.90;63.70;;;;;;5074502;28;20011;-42
2023/04/04 08:57:44;;;;;;;;;;;6.90;66.10;;;;;;5074445;28;19913;-37
2023/04/04 09:00:10;;;;;;;;;;;6.90;65.80;;;;;;5074633;28;19912;-35
2023/04/04 09:02:38;;;;;;;;;;;7.00;65.40;;;;;;5074255;28;19935;-37
2023/04/04 09:05:05;;;;;;;;;;;7.00;65.90;;;;;;5074138;28;19913;-37
2023/04/04 09:07:31;;;;;;;;;;;7.10;65.70;;;;;;5074012;28;20323;-35
2023/04/04 09:09:57;;;;;;;;;;;7.20;64.90;;;;;;5073941;28;19961;-37
2023/04/04 09:12:23;;;;;;;;;;;7.30;66.80;;;;;;5074165;28;19935;-38
2023/04/04 09:14:50;;;;;;;;;;;7.40;68.60;;;;;;5072735;28;19917;-36
2023/04/04 09:17:16;;;;;;;;;;;7.50;68.80;;;;;;5074277;28;19999;-36
2023/04/04 09:19:41;;;;;;;;;;;7.60;68.60;;;;;;5072676;28;19997;-35
2023/04/04 09:22:07;;;;;;;;;;;7.70;68.50;;;;;;5073918;28;19959;-36
2023/04/04 09:24:40;;;;;;;;;;;7.80;68.30;;;;;;5072541;28;20015;-36
2023/04/04 09:27:07;;;;;;;;;;;7.80;69.10;;;;;;5073842;28;19919;-36
2023/04/04 09:29:33;;;;;;;;;;;7.90;68.90;;;;;;5073847;28;19962;-35
2023/04/04 09:31:59;;;;;;;;;;;8.00;69.00;;;;;;5073668;28;19913;-35
2023/04/04 09:34:24;;;;;;;;;;;8.10;69.80;;;;;;5073635;28;20376;-40
2023/04/04 09:36:49;;;;;;;;;;;8.20;70.10;;;;;;5073662;28;20379;-36
2023/04/04 09:39:15;;;;;;;;;;;8.20;70.20;;;;;;5073584;28;19979;-36
2023/04/04 09:41:42;;;;;;;;;;;8.30;69.00;;;;;;5073438;28;19919;-36
2023/04/04 09:44:09;;;;;;;;;;;8.30;68.00;;;;;;5073288;28;19913;-38
2023/04/04 09:46:36;;;;;;;;;;;8.40;67.60;;;;;;5073310;28;19977;-38
2023/04/04 09:49:01;;;;;;;;;;;8.40;67.80;;;;;;5073335;28;19924;-38
2023/04/04 09:51:37;;;;;;;;;;;8.50;66.80;;;;;;5073351;28;19912;-37
2023/04/04 09:54:05;;;;;;;;;;;8.50;67.80;;;;;;5073208;28;20364;-38
2023/04/04 09:56:32;;;;;;;;;;;8.60;66.90;;;;;;5073266;28;19920;-38
2023/04/04 09:58:58;;;;;;;;;;;8.60;67.80;;;;;;5073241;28;20074;-36
2023/04/04 10:01:24;;;;;;;;;;;8.70;68.30;;;;;;5072527;28;19916;-36
2023/04/04 10:03:51;;;;;;;;;;;8.60;67.80;;;;;;5072523;28;20008;-36
2023/04/04 10:06:17;;;;;;;;;;;8.60;68.20;;;;;;5072690;28;20340;-37
2023/04/04 10:08:42;;;;;;;;;;;8.70;68.10;;;;;;5072619;28;19920;-35
2023/04/04 10:11:08;;;;;;;;;;;8.70;68.70;;;;;;5072659;28;19919;-35
2023/04/04 10:13:35;;;;;;;;;;;8.80;69.50;;;;;;5072564;28;19908;-34
2023/04/04 10:16:02;;;;;;;;;;;8.80;69.00;;;;;;5072588;28;19908;-36
2023/04/04 10:18:29;;;;;;;;;;;8.90;71.50;;;;;;5072541;28;19908;-38
2023/04/04 10:20:55;;;;;;;;;;;8.90;71.30;;;;;;5072864;28;19909;-37
2023/04/04 10:23:23;;;;;;;;;;;9.00;74.30;;;;;;5072217;28;20383;-37
2023/04/04 10:25:49;;;;;;;;;;;9.10;74.00;;;;;;5072564;28;19920;-37
2023/04/04 10:28:19;;;;;;;;;;;9.20;72.90;;;;;;5072369;28;19959;-37
2023/04/04 10:31:00;;;;;;;;;;;9.20;72.50;;;;;;5072450;28;19912;-36
2023/04/04 10:33:25;;;;;;;;;;;9.20;72.30;;;;;;5072545;28;19908;-38
2023/04/04 10:35:52;;;;;;;;;;;9.20;71.70;;;;;;5071891;28;19916;-39
2023/04/04 10:38:21;;;;;;;;;;;9.30;73.10;;;;;;5070902;28;19931;-37
2023/04/04 10:40:49;;;;;;;;;;;9.30;74.80;;;;;;5072150;28;20279;-36
2023/04/04 10:43:16;;;;;;;;;;;9.30;73.60;;;;;;5072361;28;19931;-36
2023/04/04 10:45:42;;;;;;;;;;;9.30;72.90;;;;;;5072223;28;19915;-37
2023/04/04 10:48:08;;;;;;;;;;;9.30;71.30;;;;;;5072001;28;19908;-37
2023/04/04 10:50:34;;;;;;;;;;;9.30;73.40;;;;;;5071883;28;20295;-36
2023/04/04 10:53:02;;;;;;;;;;;9.30;72.50;;;;;;5072107;28;19909;-36
2023/04/04 10:55:28;;;;;;;;;;;9.40;71.70;;;;;;5072012;28;20352;-37
2023/04/04 10:57:54;;;;;;;;;;;9.40;72.70;;;;;;5071902;28;19909;-37
2023/04/04 11:00:22;;;;;;;;;;;9.50;74.70;;;;;;5072231;28;19948;-37
2023/04/04 11:02:49;;;;;;;;;;;9.60;73.50;;;;;;5072043;28;20382;-38
2023/04/04 11:05:17;;;;;;;;;;;9.70;73.90;;;;;;5071855;28;20312;-37
2023/04/04 11:07:45;;;;;;;;;;;9.70;73.50;;;;;;5071484;28;20041;-35
2023/04/04 11:10:15;;;;;;;;;;;9.80;74.20;;;;;;5071356;28;19995;-36
2023/04/04 11:12:44;;;;;;;;;;;9.90;75.20;;;;;;5071831;28;19977;-37
2023/04/04 11:15:11;;;;;;;;;;;9.90;74.80;;;;;;5071521;28;20445;-38
2023/04/04 11:17:40;;;;;;;;;;;9.90;74.30;;;;;;5071515;28;19947;-44
2023/04/04 11:20:09;;;;;;;;;;;9.90;75.30;;;;;;5071532;28;20003;-43
2023/04/04 11:22:35;;;;;;;;;;;10.00;75.40;;;;;;5071361;28;19909;-36
2023/04/04 11:25:20;;;;;;;;;;;10.00;75.10;;;;;;5071179;28;19931;-36
2023/04/04 11:27:45;;;;;;;;;;;10.00;75.30;;;;;;5071419;28;20357;-34
2023/04/04 11:30:13;;;;;;;;;;;10.10;74.70;;;;;;5071308;28;19913;-36
2023/04/04 11:32:43;;;;;;;;;;;10.00;74.70;;;;;;5071479;28;20363;-38
2023/04/04 11:35:09;;;;;;;;;;;10.10;74.60;;;;;;5070009;28;20368;-36
2023/04/04 11:37:42;;;;;;;;;;;10.20;75.00;;;;;;5071392;28;19916;-36
2023/04/04 11:40:10;;;;;;;;;;;10.20;72.90;;;;;;5071616;28;19912;-36
2023/04/04 11:42:39;;;;;;;;;;;10.30;72.70;;;;;;5071148;28;19916;-37
2023/04/04 11:45:06;;;;;;;;;;;10.40;73.40;;;;;;5071412;28;20349;-40
2023/04/04 11:47:32;;;;;;;;;;;10.50;74.70;;;;;;5072181;28;19908;-38
2023/04/04 11:49:59;;;;;;;;;;;10.60;75.50;;;;;;5075360;28;20352;-37
2023/04/04 11:52:25;;;;;;;;;;;10.70;75.50;;;;;;5075076;28;19948;-36
2023/04/04 11:54:51;;;;;;;;;;;10.70;74.80;;;;;;5075100;28;19951;-36
2023/04/04 11:57:18;;;;;;;;;;;10.70;70.50;;;;;;5075237;28;20314;-37
2023/04/04 11:59:47;;;;;;;;;;;10.70;72.40;;;;;;5075207;28;20198;-36
2023/04/04 12:02:15;;;;;;;;;;;10.70;72.40;;;;;;5075086;28;19913;-35
2023/04/04 12:04:44;;;;;;;;;;;10.80;71.90;;;;;;5075127;28;19927;-36
2023/04/04 12:07:09;;;;;;;;;;;10.80;71.60;;;;;;5074684;28;19912;-36
2023/04/04 12:09:35;;;;;;;;;;;10.80;70.20;;;;;;5074551;28;20421;-48
2023/04/04 12:12:02;;;;;;;;;;;10.90;69.40;;;;;;5073500;28;19957;-35
2023/04/04 12:14:27;;;;;;;;;;;10.90;69.00;;;;;;5074843;28;19923;-37
2023/04/04 12:16:54;;;;;;;;;;;10.90;68.60;;;;;;5074681;28;19909;-38
2023/04/04 12:19:23;;;;;;;;;;;11.00;66.90;;;;;;5073152;28;19908;-35
2023/04/04 12:21:49;;;;;;;;;;;11.00;69.80;;;;;;5074417;28;20054;-37
2023/04/04 12:24:15;;;;;;;;;;;11.10;71.00;;;;;;5074299;28;20317;-49
2023/04/04 12:26:41;;;;;;;;;;;11.20;68.80;;;;;;5074532;28;20107;-36
2023/04/04 12:29:08;;;;;;;;;;;11.20;69.10;;;;;;5074207;28;19934;-38
2023/04/04 12:31:34;;;;;;;;;;;11.30;72.00;;;;;;5074481;28;19961;-35
2023/04/04 12:34:00;;;;;;;;;;;11.30;71.70;;;;;;5074561;28;19920;-36
2023/04/04 12:36:26;;;;;;;;;;;11.50;71.70;;;;;;5074180;28;20376;-37
2023/04/04 12:38:57;;;;;;;;;;;11.60;68.00;;;;;;5074451;28;20344;-36
2023/04/04 12:41:23;;;;;;;;;;;11.60;70.00;;;;;;5074218;28;19920;-36
2023/04/04 12:43:48;;;;;;;;;;;11.70;67.80;;;;;;5074546;28;19908;-37
2023/04/04 12:46:14;;;;;;;;;;;11.80;67.30;;;;;;5074147;28;19908;-37
2023/04/04 12:48:39;;;;;;;;;;;11.80;66.10;;;;;;5074089;28;19920;-37
2023/04/04 12:51:05;;;;;;;;;;;11.80;66.20;;;;;;5074383;28;19915;-36
2023/04/04 12:53:31;;;;;;;;;;;11.90;67.20;;;;;;5074075;28;19908;-34
2023/04/04 12:56:01;;;;;;;;;;;11.90;65.50;;;;;;5074292;28;19916;-37
2023/04/04 12:58:27;;;;;;;;;;;12.00;66.20;;;;;;5073903;28;20352;-35
2023/04/04 13:00:53;;;;;;;;;;;12.00;66.40;;;;;;5074278;28;19909;-36
2023/04/04 13:03:21;;;;;;;;;;;12.10;65.60;;;;;;5073843;28;20016;-36
2023/04/04 13:05:46;;;;;;;;;;;12.10;66.30;;;;;;5073916;28;20330;-36
2023/04/04 13:08:12;;;;;;;;;;;12.20;66.90;;;;;;5073799;28;19908;-36
2023/04/04 13:10:57;;;;;;;;;;;12.30;66.60;;;;;;5073827;28;19988;-36
2023/04/04 13:13:39;;;;;;;;;;;12.30;66.10;;;;;;5073718;28;19915;-40
2023/04/04 13:16:06;;;;;;;;;;;12.40;65.90;;;;;;5073978;28;19909;-35
2023/04/04 13:18:34;;;;;;;;;;;12.50;66.30;;;;;;5072331;28;19912;-34
2023/04/04 13:20:59;;;;;;;;;;;12.50;65.80;;;;;;5073549;28;19923;-36
2023/04/04 13:23:25;;;;;;;;;;;12.50;66.00;;;;;;5073496;28;19920;-36
2023/04/04 13:25:50;;;;;;;;;;;12.60;66.50;;;;;;5073448;28;20437;-38
2023/04/04 13:28:16;;;;;;;;;;;12.70;64.80;;;;;;5073607;28;19938;-36
2023/04/04 13:30:47;;;;;;;;;;;12.70;65.70;;;;;;5072014;28;19939;-36
2023/04/04 13:33:13;;;;;;;;;;;12.70;64.20;;;;;;5073376;28;20332;-36
2023/04/04 13:35:41;;;;;;;;;;;12.80;64.20;;;;;;5072203;28;19923;-37
2023/04/04 13:38:06;;;;;;;;;;;12.80;64.20;;;;;;5073203;28;19908;-36
2023/04/04 13:40:31;;;;;;;;;;;12.80;63.20;;;;;;5073170;28;19908;-36
2023/04/04 13:42:57;;;;;;;;;;;12.70;61.60;;;;;;5073377;28;19912;-36
2023/04/04 13:45:22;;;;;;;;;;;12.70;60.40;;;;;;5073070;28;20394;-36
2023/04/04 13:47:48;;;;;;;;;;;12.80;62.30;;;;;;5071560;28;19908;-38
2023/04/04 13:50:13;;;;;;;;;;;12.90;61.90;;;;;;5073024;28;20026;-36
2023/04/04 13:52:39;;;;;;;;;;;13.00;60.00;;;;;;5072843;28;19995;-37
2023/04/04 13:55:05;;;;;;;;;;;13.10;56.80;;;;;;5072851;28;19993;-37
2023/04/04 13:57:31;;;;;;;;;;;13.10;54.20;;;;;;5072790;28;20458;-41
2023/04/04 13:59:56;;;;;;;;;;;13.20;57.50;;;;;;5072950;28;19999;-36
2023/04/04 14:02:22;;;;;;;;;;;13.30;58.00;;;;;;5072761;28;20225;-35
2023/04/04 14:04:47;;;;;;;;;;;13.50;57.80;;;;;;5072475;28;19916;-44
2023/04/04 14:07:14;;;;;;;;;;;13.60;57.50;;;;;;5072318;28;20019;-35
2023/04/04 14:09:40;;;;;;;;;;;13.70;57.00;;;;;;5071863;28;19922;-38
2023/04/04 14:12:06;;;;;;;;;;;13.70;51.10;;;;;;5072171;28;19999;-36
2023/04/04 14:14:31;;;;;;;;;;;13.60;53.00;;;;;;5072476;28;19915;-36
2023/04/04 14:16:57;;;;;;;;;;;13.50;53.90;;;;;;5072547;28;19940;-37
2023/04/04 14:19:22;;;;;;;;;;;13.50;54.10;;;;;;5072660;28;19908;-36